Flood From: 19-02-2018 10:30 Until: 20-02-2018 06:00 warning for: Flood Level: Yellow info button

Although rather usual in this region, locally or potentially dangerous phenomena are expected. (such as local winds, summer thunderstorms, rising streams or high waves) Be aware and pay attention to the latest weather updates, especially if you carry out activities exposed to weather or close to a stream or shoreline. 


Meteo18 Weather Cam more information Meteo18 Weather Cam


Thunder radar more information blitzortung!


Rain radar more information rain snow radar


Visit our other weather sites:

Template documentation
and downloads

And another site



Weather Underground History page Text

Daily Summary for May 5, 2017 Units:  Metric    English   Both
« Previous Day
Next Day »
Daily Weekly Monthly Yearly Custom
  High: Low: Average:
Temperature: -17.8 °C -15.1 °C -10.6 °C
Dew Point: -17.8 °C -15.4 °C -13.6 °C
Humidity: Humidity % 46 % 72 %
Wind Speed: 0 km/h 0 km/h 7.9 km/h
Wind Gust: 0 km/h - -
Wind:- - East
Pressure: 0 hPa 34164.7 hPa -
Precipitation: 0 mm    
Historical Graphs
 
 
Tabular Data for May 5, 2017
Time Temperature Dew Point Pressure Wind Wind Speed Wind Gust Humidity Rainfall Rate (Hourly)
-17.8 °C -17.8 °C 0 hPa Calm     Humidity % 0 mm
00:02 -13 °C -13.8 °C 34496.6 hPa Calm   2.6 km/h 90 % 0 mm
00:07 -13.2 °C -14.1 °C 34496.6 hPa Calm   2.6 km/h 89 % 0 mm
00:12 -13.4 °C -14.3 °C 34496.6 hPa Calm   2.6 km/h 89 % 0 mm
00:17 -13.4 °C -14.2 °C 34496.6 hPa Calm     91 % 0 mm
00:22 -13.4 °C -14.1 °C 34496.6 hPa Calm   2.6 km/h 92 % 0 mm
00:32 -13.7 °C -14.3 °C 34496.6 hPa West 2.6 km/h 2.6 km/h 92 % 0 mm
00:37 -13.8 °C -14.4 °C 34496.6 hPa Calm   2.6 km/h 92 % 0 mm
00:42 -13.7 °C -14.2 °C 34496.6 hPa Calm   2.6 km/h 94 % 0 mm
00:47 -13.6 °C -14.2 °C 34496.6 hPa WNW 5.1 km/h 5.1 km/h 93 % 0 mm
00:52 -13.7 °C -14.3 °C 34496.6 hPa WNW 2.6 km/h 5.1 km/h 93 % 0 mm
00:57 -13.6 °C -14.1 °C 34496.6 hPa Calm   5.1 km/h 94 % 0 mm
01:02 -13.6 °C -14.2 °C 34496.6 hPa NW 2.6 km/h 5.1 km/h 93 % 0 mm
01:07 -13.7 °C -14.3 °C 34496.6 hPa NNW 2.6 km/h 2.6 km/h 93 % 0 mm
01:12 -13.8 °C -14.5 °C 34496.6 hPa NNW 2.6 km/h 5.1 km/h 92 % 0 mm
01:17 -13.9 °C -14.6 °C 34496.6 hPa Calm   5.1 km/h 93 % 0 mm
01:22 -13.9 °C -14.6 °C 34496.6 hPa Calm   5.1 km/h 93 % 0 mm
01:27 -14.2 °C -14.8 °C 34496.6 hPa North 2.6 km/h 5.1 km/h 92 % 0 mm
01:32 -14.3 °C -15 °C 34496.6 hPa Calm   5.1 km/h 92 % 0 mm
01:37 -14.3 °C -14.8 °C 34486.4 hPa Calm   5.1 km/h 93 % 0 mm
01:42 -14.3 °C -14.8 °C 34486.4 hPa NW 2.6 km/h 5.1 km/h 93 % 0 mm
01:47 -14.3 °C -14.8 °C 34486.4 hPa WNW 2.6 km/h 5.1 km/h 94 % 0 mm
01:52 -14.3 °C -14.8 °C 34486.4 hPa WNW 2.6 km/h 5.1 km/h 94 % 0 mm
01:57 -14.3 °C -14.8 °C 34486.4 hPa Calm   2.6 km/h 94 % 0 mm
02:02 -14.2 °C -14.6 °C 34486.4 hPa Calm   2.6 km/h 95 % 0 mm
02:12 -14 °C -14.4 °C 34476.3 hPa Calm     95 % 0 mm
02:17 -14.1 °C -14.6 °C 34476.3 hPa North 2.6 km/h 5.1 km/h 94 % 0 mm
02:22 -14.1 °C -14.6 °C 34476.3 hPa North 2.6 km/h 5.1 km/h 94 % 0 mm
02:27 -14.1 °C -14.6 °C 34476.3 hPa NNE 2.6 km/h 5.1 km/h 94 % 0 mm
02:32 -14.1 °C -14.6 °C 34476.3 hPa Calm   5.1 km/h 94 % 0 mm
02:37 -14.2 °C -14.7 °C 34476.3 hPa Calm   5.1 km/h 94 % 0 mm
02:42 -14.2 °C -14.7 °C 34476.3 hPa Calm   5.1 km/h 94 % 0 mm
02:47 -14.3 °C -14.9 °C 34476.3 hPa Calm   2.6 km/h 93 % 0 mm
02:52 -14.3 °C -14.7 °C 34462.7 hPa Calm   2.6 km/h 95 % 0 mm
02:57 -14.3 °C -14.7 °C 34476.3 hPa Calm   2.6 km/h 95 % 0 mm
03:02 -14.3 °C -14.8 °C 34476.3 hPa Calm   2.6 km/h 94 % 0 mm
03:07 -14.3 °C -14.8 °C 34476.3 hPa Calm   2.6 km/h 94 % 0 mm
03:12 -14.2 °C -14.6 °C 34476.3 hPa NNW 2.6 km/h   95 % 0 mm
03:22 -14.2 °C -14.7 °C 34476.3 hPa Calm   2.6 km/h 94 % 0 mm
03:27 -14.3 °C -14.7 °C 34476.3 hPa Calm   2.6 km/h 95 % 0 mm
03:32 -14.3 °C -14.8 °C 34462.7 hPa Calm     94 % 0 mm
03:37 -14.5 °C -15 °C 34462.7 hPa Calm     94 % 0 mm
03:42 -14.6 °C -15.1 °C 34462.7 hPa Calm     94 % 0 mm
03:47 -14.5 °C -14.9 °C 34462.7 hPa Calm     95 % 0 mm
03:52 -14.5 °C -14.9 °C 34462.7 hPa Calm     95 % 0 mm
03:57 -14.6 °C -15.1 °C 34476.3 hPa Calm     94 % 0 mm
04:02 -14.6 °C -14.9 °C 34462.7 hPa NNW 2.6 km/h   95 % 0 mm
04:07 -14.6 °C -15 °C 34462.7 hPa North 2.6 km/h 5.1 km/h 95 % 0 mm
04:12 -14.5 °C -14.8 °C 34462.7 hPa North 2.6 km/h 5.1 km/h 96 % 0 mm
04:17 -14.3 °C -14.7 °C 34462.7 hPa Calm   5.1 km/h 96 % 0 mm
04:22 -14.4 °C -14.8 °C 34462.7 hPa Calm   2.6 km/h 95 % 0 mm
04:27 -14.6 °C -15.1 °C 34462.7 hPa Calm   2.6 km/h 94 % 0 mm
04:32 -14.6 °C -15 °C 34462.7 hPa Calm     95 % 0 mm
04:37 -14.6 °C -15 °C 34462.7 hPa Calm     95 % 0 mm
04:42 -14.6 °C -14.9 °C 34462.7 hPa Calm     95 % 0 mm
04:47 -14.5 °C -14.9 °C 34462.7 hPa Calm     95 % 0 mm
04:52 -14.4 °C -14.8 °C 34462.7 hPa Calm     95 % 0 mm
04:57 -14.6 °C -15.1 °C 34462.7 hPa Calm     94 % 0 mm
05:02 -14.8 °C -15.3 °C 34476.3 hPa Calm     94 % 0 mm
05:12 -14.8 °C -15.2 °C 34462.7 hPa Calm     95 % 0 mm
05:17 -14.8 °C -15.3 °C 34462.7 hPa Calm     94 % 0 mm
05:22 -14.8 °C -15.2 °C 34462.7 hPa Calm     95 % 0 mm
05:32 -14.9 °C -15.3 °C 34462.7 hPa Calm     95 % 0 mm
05:37 -14.8 °C -15.2 °C 34462.7 hPa Calm   2.6 km/h 96 % 0 mm
05:42 -14.8 °C -15.2 °C 34462.7 hPa North 2.6 km/h 2.6 km/h 95 % 0 mm
05:47 -14.9 °C -15.3 °C 34462.7 hPa NNW 2.6 km/h 5.1 km/h 95 % 0 mm
05:52 -14.9 °C -15.3 °C 34462.7 hPa Calm   5.1 km/h 95 % 0 mm
05:57 -15.1 °C -15.4 °C 34462.7 hPa Calm   5.1 km/h 95 % 0 mm
06:02 -14.9 °C -15.3 °C 34462.7 hPa Calm   2.6 km/h 96 % 0 mm
06:12 -14.9 °C -15.3 °C 34462.7 hPa Calm   2.6 km/h 96 % 0 mm
06:17 -14.9 °C -15.3 °C 34452.6 hPa Calm   2.6 km/h 96 % 0 mm
06:22 -14.9 °C -15.2 °C 34462.7 hPa Calm   2.6 km/h 96 % 0 mm
06:32 -14.9 °C -15.3 °C 34462.7 hPa North 2.6 km/h 2.6 km/h 96 % 0 mm
06:37 -14.9 °C -15.3 °C 34462.7 hPa Calm   2.6 km/h 96 % 0 mm
06:42 -14.9 °C -15.2 °C 34462.7 hPa Calm   2.6 km/h 96 % 0 mm
06:47 -14.8 °C -15.2 °C 34462.7 hPa Calm   2.6 km/h 96 % 0 mm
06:52 -14.8 °C -15.2 °C 34462.7 hPa NNW 2.6 km/h 2.6 km/h 95 % 0 mm
07:02 -14.6 °C -15 °C 34462.7 hPa Calm   5.1 km/h 95 % 0 mm
07:12 -14.5 °C -14.9 °C 34452.6 hPa Calm   2.6 km/h 95 % 0 mm
07:17 -14.4 °C -14.8 °C 34462.7 hPa North 2.6 km/h   95 % 0 mm
07:22 -14.4 °C -14.9 °C 34452.6 hPa Calm   2.6 km/h 94 % 0 mm
07:32 -14.4 °C -14.8 °C 34462.7 hPa NE 5.1 km/h 7.7 km/h 95 % 0 mm
07:37 -14.3 °C -14.7 °C 34462.7 hPa NE 5.1 km/h 10.3 km/h 95 % 0 mm
07:42 -14.2 °C -14.7 °C 34462.7 hPa NNE 5.1 km/h 10.3 km/h 94 % 0 mm
07:47 -14.1 °C -14.6 °C 34462.7 hPa NNW 5.1 km/h 10.3 km/h 94 % 0 mm
07:52 -14 °C -14.5 °C 34462.7 hPa NE 7.7 km/h 10.3 km/h 94 % 0 mm
07:57 -13.8 °C -14.3 °C 34452.6 hPa NE 7.7 km/h 10.3 km/h 94 % 0 mm
08:02 -13.7 °C -14.3 °C 34452.6 hPa NE 10.3 km/h 12.9 km/h 93 % 0 mm
08:12 -13.4 °C -14.1 °C 34452.6 hPa NE 10.3 km/h 18.2 km/h 93 % 0 mm
08:17 -13.3 °C -13.9 °C 34452.6 hPa NNE 10.3 km/h 18.2 km/h 92 % 0 mm
08:22 -13.2 °C -13.9 °C 34452.6 hPa North 5.1 km/h 15.6 km/h 91 % 0 mm
08:32 -12.9 °C -13.8 °C 34452.6 hPa Calm   12.9 km/h 90 % 0 mm
08:37 -12.7 °C -13.6 °C 34452.6 hPa NNE 5.1 km/h 12.9 km/h 90 % 0 mm
08:42 -12.4 °C -13.3 °C 34452.6 hPa Calm   10.3 km/h 90 % 0 mm
08:47 -12.2 °C -13.1 °C 34462.7 hPa Calm   10.3 km/h 90 % 0 mm
08:52 -12.1 °C -13.3 °C 34462.7 hPa Calm   10.3 km/h 87 % 0 mm
08:57 -11.9 °C -13.1 °C 34462.7 hPa Calm   10.3 km/h 87 % 0 mm
09:02 -11.8 °C -13.2 °C 34452.6 hPa East 7.7 km/h 7.7 km/h 85 % 0 mm
09:12 -11.9 °C -13.3 °C 34452.6 hPa East 2.6 km/h 12.9 km/h 84 % 0 mm
09:17 -11.8 °C -13.2 °C 34452.6 hPa NE 5.1 km/h 12.9 km/h 85 % 0 mm
09:22 -11.7 °C -13 °C 34452.6 hPa Calm   12.9 km/h 85 % 0 mm
09:32 -11.5 °C -12.9 °C 34452.6 hPa ENE 5.1 km/h 15.6 km/h 84 % 0 mm
09:37 -11.3 °C -12.8 °C 34452.6 hPa NE 7.7 km/h 15.6 km/h 84 % 0 mm
09:42 -11.3 °C -12.8 °C 34452.6 hPa NE 5.1 km/h 12.9 km/h 83 % 0 mm
09:47 -11.2 °C -12.8 °C 34452.6 hPa ENE 12.9 km/h 18.2 km/h 83 % 0 mm
09:52 -11.2 °C -12.7 °C 34452.6 hPa NE 12.9 km/h 20.8 km/h 84 % 0 mm
09:57 -11.1 °C -12.6 °C 34442.4 hPa NE 5.1 km/h 20.8 km/h 83 % 0 mm
10:02 -10.9 °C -12.6 °C 34442.4 hPa NE 7.7 km/h 20.8 km/h 82 % 0 mm
10:07 -10.7 °C -12.4 °C 34442.4 hPa East 7.7 km/h 18.2 km/h 82 % 0 mm
10:12 -10.7 °C -12.4 °C 34442.4 hPa East 12.9 km/h 20.8 km/h 81 % 0 mm
10:17 -10.6 °C -12.8 °C 34442.4 hPa ENE 12.9 km/h 23.3 km/h 77 % 0 mm
10:22 -10.4 °C -12.4 °C 34442.4 hPa East 10.3 km/h 23.3 km/h 79 % 0 mm
10:27 -10.4 °C -12.6 °C 34442.4 hPa ENE 15.6 km/h 23.3 km/h 77 % 0 mm
10:32 -10.4 °C -12.6 °C 34442.4 hPa East 7.7 km/h 23.3 km/h 77 % 0 mm
10:37 -10.3 °C -12.4 °C 34442.4 hPa East 12.9 km/h 23.3 km/h 78 % 0 mm
10:42 -10.3 °C -12.7 °C 34428.8 hPa ENE 5.1 km/h 28.5 km/h 75 % 0 mm
10:47 -10.1 °C -12.4 °C 34428.8 hPa NE 15.6 km/h 28.5 km/h 76 % 0 mm
10:52 -9.9 °C -12.6 °C 34428.8 hPa East 12.9 km/h 20.8 km/h 73 % 0 mm
10:57 -9.9 °C -12.6 °C 34428.8 hPa NE 15.6 km/h 25.9 km/h 73 % 0 mm
11:02 -9.8 °C -12.8 °C 34428.8 hPa ENE 18.2 km/h 28.5 km/h 70 % 0 mm
11:12 -9.6 °C -12.8 °C 34418.7 hPa East 12.9 km/h 28.5 km/h 68 % 0 mm
11:17 -9.4 °C -12.7 °C 34418.7 hPa NE 10.3 km/h 28.5 km/h 68 % 0 mm
11:22 -9.4 °C -12.8 °C 34418.7 hPa ENE 10.3 km/h 28.5 km/h 67 % 0 mm
11:27 -9.3 °C -12.6 °C 34418.7 hPa ENE 12.9 km/h 28.5 km/h 68 % 0 mm
11:32 -9.3 °C -12.8 °C 34418.7 hPa ENE 12.9 km/h 28.5 km/h 66 % 0 mm
11:37 -9.2 °C -12.7 °C 34418.7 hPa NE 18.2 km/h 28.5 km/h 66 % 0 mm
11:42 -9.1 °C -12.8 °C 34418.7 hPa NE 12.9 km/h 28.5 km/h 64 % 0 mm
11:47 -9.1 °C -13.1 °C 34418.7 hPa ENE 15.6 km/h 31.1 km/h 62 % 0 mm
11:52 -9 °C -12.8 °C 34405.1 hPa ENE 23.3 km/h 36.2 km/h 64 % 0 mm
11:57 -8.9 °C -12.7 °C 34405.1 hPa NE 18.2 km/h 36.2 km/h 64 % 0 mm
12:02 -8.9 °C -13.1 °C 34405.1 hPa ENE 12.9 km/h 33.6 km/h 61 % 0 mm
12:07 -8.8 °C -12.9 °C 34405.1 hPa East 15.6 km/h 33.6 km/h 61 % 0 mm
12:12 -8.7 °C -12.9 °C 34405.1 hPa ENE 23.3 km/h 31.1 km/h 61 % 0 mm
12:17 -8.8 °C -12.9 °C 34405.1 hPa East 20.8 km/h 36.2 km/h 61 % 0 mm
12:22 -8.7 °C -13.3 °C 34405.1 hPa East 18.2 km/h 38.8 km/h 58 % 0 mm
12:27 -8.6 °C -13.7 °C 34395 hPa ENE 20.8 km/h 38.8 km/h 55 % 0 mm
12:32 -8.6 °C -13.6 °C 34395 hPa ENE 31.1 km/h 41.4 km/h 55 % 0 mm
12:42 -8.4 °C -13.2 °C 34395 hPa East 15.6 km/h 41.4 km/h 57 % 0 mm
12:47 -8.4 °C -13.8 °C 34395 hPa ENE 25.9 km/h 38.8 km/h 53 % 0 mm
12:52 -8.4 °C -13.4 °C 34395 hPa ENE 7.7 km/h 38.8 km/h 55 % 0 mm
12:57 -8.2 °C -13.7 °C 34395 hPa ESE 10.3 km/h 36.2 km/h 52 % 0 mm
13:02 -8.2 °C -13.4 °C 34395 hPa NNE 18.2 km/h 41.4 km/h 54 % 0 mm
13:07 -8.1 °C -13.2 °C 34395 hPa ENE 15.6 km/h 41.4 km/h 55 % 0 mm
13:12 -8.2 °C -13.6 °C 34395 hPa ENE 7.7 km/h 41.4 km/h 53 % 0 mm
13:17 -8.1 °C -13.6 °C 34395 hPa East 20.8 km/h 33.6 km/h 52 % 0 mm
13:22 -8 °C -13.2 °C 34395 hPa ESE 5.1 km/h 38.8 km/h 54 % 0 mm
13:32 -8 °C -13.4 °C 34395 hPa East 15.6 km/h 44.1 km/h 53 % 0 mm
13:37 -7.9 °C -12.8 °C 34384.8 hPa NE 23.3 km/h 44.1 km/h 56 % 0 mm
13:42 -7.8 °C -12.8 °C 34384.8 hPa ENE 25.9 km/h 36.2 km/h 56 % 0 mm
13:52 -7.7 °C -12.8 °C 34384.8 hPa NE 15.6 km/h 36.2 km/h 55 % 0 mm
13:57 -7.7 °C -13.1 °C 34384.8 hPa ENE 12.9 km/h 36.2 km/h 53 % 0 mm
14:02 -7.7 °C -12.8 °C 34384.8 hPa East 20.8 km/h 38.8 km/h 55 % 0 mm
14:07 -7.4 °C -12.1 °C 34384.8 hPa ENE 5.1 km/h 38.8 km/h 58 % 0 mm
14:12 -7.6 °C -13 °C 34371.3 hPa East 5.1 km/h 38.8 km/h 53 % 0 mm
14:17 -7.4 °C -12.4 °C 34371.3 hPa SSW 7.7 km/h 25.9 km/h 56 % 0 mm
14:22 -7.2 °C -12.3 °C 34371.3 hPa East 15.6 km/h 25.9 km/h 55 % 0 mm
14:27 -7.1 °C -11.8 °C 34361.1 hPa ESE 7.7 km/h 25.9 km/h 58 % 0 mm
14:32 -7.3 °C -12.3 °C 34361.1 hPa East 20.8 km/h 25.9 km/h 56 % 0 mm
14:37 -7.3 °C -12.3 °C 34361.1 hPa ENE 20.8 km/h 28.5 km/h 56 % 0 mm
14:42 -7.3 °C -12 °C 34361.1 hPa ENE 12.9 km/h 28.5 km/h 58 % 0 mm
14:47 -7.2 °C -11.9 °C 34361.1 hPa East 7.7 km/h 28.5 km/h 58 % 0 mm
14:52 -7.2 °C -12 °C 34361.1 hPa SE 10.3 km/h 28.5 km/h 57 % 0 mm
15:02 -7 °C -12.2 °C 34347.6 hPa East 10.3 km/h 18.2 km/h 55 % 0 mm
15:07 -7.1 °C -12.3 °C 34347.6 hPa ENE 23.3 km/h 23.3 km/h 55 % 0 mm
15:12 -7.1 °C -12.4 °C 34347.6 hPa ESE 7.7 km/h 31.1 km/h 54 % 0 mm
15:17 -7.1 °C -12.3 °C 34347.6 hPa SSE 7.7 km/h 31.1 km/h 55 % 0 mm
15:22 -7 °C -11.7 °C 34347.6 hPa East 7.7 km/h 31.1 km/h 58 % 0 mm
15:27 -6.8 °C -12 °C 34337.4 hPa NE 10.3 km/h 31.1 km/h 55 % 0 mm
15:32 -7 °C -12.2 °C 34337.4 hPa ENE 5.1 km/h 25.9 km/h 55 % 0 mm
15:37 -7 °C -12.3 °C 34337.4 hPa East 18.2 km/h 23.3 km/h 54 % 0 mm
15:42 -6.8 °C -11.5 °C 34327.3 hPa NE 10.3 km/h 28.5 km/h 58 % 0 mm
15:52 -6.4 °C -11.4 °C 34327.3 hPa ESE 7.7 km/h 31.1 km/h 56 % 0 mm
15:57 -6.5 °C -12.5 °C 34327.3 hPa ESE 10.3 km/h 31.1 km/h 50 % 0 mm
16:02 -6.6 °C -12.9 °C 34313.7 hPa SE 10.3 km/h 20.8 km/h 48 % 0 mm
16:07 -6.6 °C -12.4 °C 34313.7 hPa ESE 5.1 km/h 20.8 km/h 51 % 0 mm
16:12 -6.6 °C -12.7 °C 34313.7 hPa ENE 10.3 km/h 25.9 km/h 49 % 0 mm
16:17 -6.7 °C -13 °C 34313.7 hPa East 15.6 km/h 28.5 km/h 48 % 0 mm
16:22 -6.6 °C -12.6 °C 34313.7 hPa East 20.8 km/h 31.1 km/h 50 % 0 mm
16:27 -6.6 °C -12.9 °C 34313.7 hPa ESE 10.3 km/h 36.2 km/h 48 % 0 mm
16:32 -6.7 °C -13.2 °C 34303.6 hPa ENE 12.9 km/h 36.2 km/h 47 % 0 mm
16:37 -6.6 °C -12.4 °C 34303.6 hPa ENE 12.9 km/h 36.2 km/h 51 % 0 mm
16:42 -6.7 °C -12.6 °C 34303.6 hPa ENE 7.7 km/h 25.9 km/h 50 % 0 mm
16:47 -6.9 °C -12.7 °C 34303.6 hPa ENE 15.6 km/h 31.1 km/h 51 % 0 mm
16:52 -6.9 °C -12.6 °C 34293.4 hPa ENE 15.6 km/h 31.1 km/h 52 % 0 mm
16:57 -6.9 °C -12.5 °C 34293.4 hPa NE 2.6 km/h 25.9 km/h 52 % 0 mm
17:02 -6.7 °C -12.7 °C 34293.4 hPa ENE 18.2 km/h 25.9 km/h 50 % 0 mm
17:07 -6.8 °C -12.9 °C 34293.4 hPa ENE 20.8 km/h 41.4 km/h 49 % 0 mm
17:12 -6.9 °C -13.2 °C 34293.4 hPa East 31.1 km/h 41.4 km/h 48 % 0 mm
17:17 -6.8 °C -12.9 °C 34293.4 hPa ENE 15.6 km/h 41.4 km/h 49 % 0 mm
17:22 -6.8 °C -13.1 °C 34279.9 hPa East 15.6 km/h 36.2 km/h 48 % 0 mm
17:27 -6.8 °C -12.9 °C 34279.9 hPa ENE 10.3 km/h 36.2 km/h 49 % 0 mm
17:32 -6.7 °C -12.6 °C 34279.9 hPa ENE 23.3 km/h 36.2 km/h 50 % 0 mm
17:37 -6.6 °C -12.7 °C 34279.9 hPa ENE 12.9 km/h 33.6 km/h 49 % 0 mm
17:42 -6.6 °C -12.7 °C 34279.9 hPa ESE 5.1 km/h 31.1 km/h 49 % 0 mm
17:52 -6.3 °C -12.8 °C 34279.9 hPa East 18.2 km/h 31.1 km/h 47 % 0 mm
17:57 -6.4 °C -12.9 °C 34279.9 hPa ESE 15.6 km/h 31.1 km/h 47 % 0 mm
18:02 -6.5 °C -12.8 °C 34269.7 hPa East 12.9 km/h 31.1 km/h 48 % 0 mm
18:07 -6.6 °C -13.1 °C 34256.2 hPa ENE 23.3 km/h 31.1 km/h 47 % 0 mm
18:12 -6.6 °C -13.1 °C 34256.2 hPa ENE 10.3 km/h 31.1 km/h 47 % 0 mm
18:17 -6.7 °C -13.2 °C 34256.2 hPa NE 10.3 km/h 28.5 km/h 47 % 0 mm
18:22 -6.9 °C -13.2 °C 34256.2 hPa East 18.2 km/h 28.5 km/h 48 % 0 mm
18:32 -7.1 °C -13.7 °C 34269.7 hPa East 7.7 km/h 28.5 km/h 46 % 0 mm
18:42 -7.1 °C -13.3 °C 34256.2 hPa ENE 7.7 km/h 20.8 km/h 48 % 0 mm
18:47 -7.1 °C -13.5 °C 34256.2 hPa ESE 7.7 km/h 18.2 km/h 47 % 0 mm
18:52 -7.1 °C -13.1 °C 34256.2 hPa SE 5.1 km/h 18.2 km/h 50 % 0 mm
18:57 -7.2 °C -13.3 °C 34256.2 hPa East 2.6 km/h 15.6 km/h 49 % 0 mm
19:02 -7.2 °C -13 °C 34256.2 hPa ESE 7.7 km/h 12.9 km/h 51 % 0 mm
19:07 -7.3 °C -12.9 °C 34256.2 hPa East 7.7 km/h 12.9 km/h 52 % 0 mm
19:12 -7.4 °C -13.2 °C 34256.2 hPa SE 5.1 km/h 10.3 km/h 51 % 0 mm
19:22 -7.6 °C -13.3 °C 34246 hPa East 2.6 km/h 10.3 km/h 51 % 0 mm
19:27 -7.6 °C -13 °C 34246 hPa East 5.1 km/h 10.3 km/h 53 % 0 mm
19:32 -7.6 °C -13.5 °C 34246 hPa ENE 5.1 km/h 10.3 km/h 50 % 0 mm
19:37 -7.6 °C -13.5 °C 34246 hPa ENE 5.1 km/h 10.3 km/h 50 % 0 mm
19:42 -7.7 °C -13.4 °C 34246 hPa SE 5.1 km/h 20.8 km/h 51 % 0 mm
19:47 -7.7 °C -13.4 °C 34246 hPa East 5.1 km/h 20.8 km/h 51 % 0 mm
19:52 -7.8 °C -13.3 °C 34235.8 hPa ESE 2.6 km/h 15.6 km/h 52 % 0 mm
19:57 -7.9 °C -13.3 °C 34235.8 hPa East 7.7 km/h 15.6 km/h 53 % 0 mm
20:02 -7.9 °C -13.2 °C 34235.8 hPa ESE 5.1 km/h 15.6 km/h 54 % 0 mm
20:07 -8 °C -13.2 °C 34235.8 hPa ENE 5.1 km/h 12.9 km/h 54 % 0 mm
20:12 -8.1 °C -13.3 °C 34235.8 hPa SE 10.3 km/h 12.9 km/h 54 % 0 mm
20:17 -8.1 °C -13.3 °C 34235.8 hPa East 7.7 km/h 23.3 km/h 54 % 0 mm
20:22 -8.2 °C -13.3 °C 34235.8 hPa ENE 7.7 km/h 23.3 km/h 55 % 0 mm
20:27 -8.2 °C -13.3 °C 34235.8 hPa East 5.1 km/h 23.3 km/h 55 % 0 mm
20:32 -8.3 °C -13.2 °C 34235.8 hPa East 5.1 km/h 12.9 km/h 56 % 0 mm
20:37 -8.3 °C -13.2 °C 34222.3 hPa East 7.7 km/h 12.9 km/h 56 % 0 mm
20:42 -8.4 °C -13.3 °C 34222.3 hPa East 7.7 km/h 12.9 km/h 56 % 0 mm
20:52 -8.5 °C -13.4 °C 34222.3 hPa East 7.7 km/h 15.6 km/h 56 % 0 mm
20:57 -8.6 °C -13.3 °C 34222.3 hPa ENE 5.1 km/h 15.6 km/h 57 % 0 mm
21:02 -8.7 °C -13.3 °C 34222.3 hPa ENE 10.3 km/h 12.9 km/h 58 % 0 mm
21:07 -8.8 °C -13.2 °C 34212.1 hPa East 7.7 km/h 12.9 km/h 59 % 0 mm
21:12 -8.8 °C -13.2 °C 34212.1 hPa ENE 5.1 km/h 12.9 km/h 59 % 0 mm
21:17 -8.8 °C -13.4 °C 34212.1 hPa ENE 7.7 km/h 10.3 km/h 58 % 0 mm
21:22 -8.7 °C -13.4 °C 34212.1 hPa ENE 12.9 km/h 18.2 km/h 57 % 0 mm
21:27 -8.8 °C -13.5 °C 34212.1 hPa East 12.9 km/h 20.8 km/h 57 % 0 mm
21:32 -8.8 °C -13.7 °C 34212.1 hPa ENE 10.3 km/h 20.8 km/h 56 % 0 mm
21:37 -8.8 °C -13.8 °C 34212.1 hPa East 12.9 km/h 20.8 km/h 55 % 0 mm
21:42 -8.8 °C -13.7 °C 34198.6 hPa ENE 23.3 km/h 23.3 km/h 56 % 0 mm
21:47 -8.8 °C -13.6 °C 34198.6 hPa ENE 15.6 km/h 25.9 km/h 57 % 0 mm
21:52 -9.1 °C -13.4 °C 34198.6 hPa ENE 15.6 km/h 25.9 km/h 60 % 0 mm
21:57 -9.3 °C -13.3 °C 34198.6 hPa ENE 15.6 km/h 25.9 km/h 62 % 0 mm
22:02 -9.4 °C -13.3 °C 34198.6 hPa ENE 12.9 km/h 23.3 km/h 63 % 0 mm
22:07 -9.6 °C -13.2 °C 34198.6 hPa ENE 10.3 km/h 20.8 km/h 65 % 0 mm
22:12 -9.7 °C -13.2 °C 34198.6 hPa ENE 7.7 km/h 20.8 km/h 66 % 0 mm
22:17 -9.7 °C -13.2 °C 34198.6 hPa ENE 10.3 km/h 15.6 km/h 66 % 0 mm
22:22 -9.7 °C -13.1 °C 34198.6 hPa ENE 15.6 km/h 15.6 km/h 67 % 0 mm
22:27 -9.8 °C -13.2 °C 34188.4 hPa ENE 10.3 km/h 15.6 km/h 67 % 0 mm
22:32 -9.8 °C -13.2 °C 34198.6 hPa ENE 7.7 km/h 15.6 km/h 67 % 0 mm
22:37 -9.8 °C -13.2 °C 34188.4 hPa NE 7.7 km/h 15.6 km/h 67 % 0 mm
22:42 -9.8 °C -13.3 °C 34188.4 hPa NE 7.7 km/h 15.6 km/h 66 % 0 mm
22:47 -9.8 °C -13.4 °C 34188.4 hPa NE 5.1 km/h 15.6 km/h 65 % 0 mm
22:52 -9.8 °C -13.4 °C 34188.4 hPa NE 5.1 km/h 12.9 km/h 65 % 0 mm
22:57 -9.9 °C -13.4 °C 34188.4 hPa NE 7.7 km/h 15.6 km/h 66 % 0 mm
23:02 -9.9 °C -13.3 °C 34178.3 hPa ENE 10.3 km/h 15.6 km/h 67 % 0 mm
23:07 -10.1 °C -13.4 °C 34178.3 hPa NE 12.9 km/h 15.6 km/h 67 % 0 mm
23:12 -10.2 °C -13.4 °C 34178.3 hPa NNE 5.1 km/h 15.6 km/h 68 % 0 mm
23:17 -10.2 °C -13.4 °C 34178.3 hPa NE 7.7 km/h 15.6 km/h 68 % 0 mm
23:22 -10.3 °C -13.5 °C 34178.3 hPa NE 10.3 km/h 15.6 km/h 68 % 0 mm
23:27 -10.2 °C -13.6 °C 34178.3 hPa NE 15.6 km/h 20.8 km/h 67 % 0 mm
23:32 -10.2 °C -13.5 °C 34178.3 hPa NE 10.3 km/h 20.8 km/h 67 % 0 mm
23:37 -10.2 °C -13.4 °C 34164.7 hPa NE 12.9 km/h 20.8 km/h 68 % 0 mm
23:42 -10.3 °C -13.6 °C 34164.7 hPa ENE 7.7 km/h 18.2 km/h 68 % 0 mm
23:47 -10.4 °C -13.5 °C 34164.7 hPa NNE 7.7 km/h 18.2 km/h 69 % 0 mm
23:52 -10.4 °C -13.6 °C 34164.7 hPa NNE 12.9 km/h 18.2 km/h 69 % 0 mm
23:57 -10.4 °C -13.6 °C 34164.7 hPa NE 12.9 km/h 18.2 km/h 69 % 0 mm
Meteo18
Compliments of Weather Underground - 4 mb

Script developed by  Jim McMurry - jmcmurry@mwt.net Adapted for the template by  Wim van der Kuil - Leuven-Template.eu

You find our weather info also at:

European Weather Network

Weather Underground

Equipment we use:

Weather-station
Davis Vue

Weather-program
Meteobridge

Weather-server
Raspberry PI 2 B+

Provider
1 and 1

Davis Vue

Meteobridge

Raspberry PI 2 B+

1 and 1